Etusivu
METAR-TAF:

METAR-TAF

Lentoasemat :

Comiso, Italia

Leveyspiiri: 36-59-30N, Pituuspiiri: 14-36-25E, korkeus merenpinnasta: 190 m

Tämänhetkinen sää

Tämä raportti tehtiin 31 minuuttia sitten, kello 07.50 UTC
Tuuli 4 kn lännestä, vaihdellen etelän ja luoteen välillä
Lämpötila 26°C
Kosteus 42%
Ilmanpaine 1017 hPa
Näkyvyys 10 km tai enemmän

METAR: LICB 140750Z AUTO 26004KT 180V320 9999 NCD 26/12 Q1017

Aika: 10:21 (08:21 UTC)

Sääennuste

Tämä raportti tehtiin 3 tuntia ja 21 minuuttia sitten, kello 05.00 UTC
Ennuste voimassa 14. päivästä klo 06 UTC - 14. päivään klo 15 UTC
Tuuli 5 kn eri suunnista
Näkyvyys 10 km tai enemmän
Hajanaisia pilviä 3000 ft:n korkeudessa
Tulossa
14. päivästä klo 08 UTC - 14. päivään klo 10 UTC
Tuuli 10 kn lännestä/lounaasta

TAF: LICB 140500Z 1406/1415 VRB05KT 9999 SCT030 BECMG 1408/1410 24010KT

Säähavainnot ja -ennusteet yli 4000 lentoasemalta (METAR- ja TAF-raportit).

Käytössä olevat sääasemat on merkitty karttaan keltaisilla ja punaisilla pisteillä.

Aseta hiiri pisteen päälle nähdäksesi sääaseman nimen.

Klikkaa sitten nähdäksesi säähavainnot ja -ennusteet.

Kartan vaihtaminen: klikkaa mustalla rastilla varustettuja vihreitä pisteitä, niin voit zoomata sisään; viivalla varustettua vihreää pistettä, niin voit zoomata ulos tai vihreitä nuolia, niin pääset viereisille kartoille.


METAR-TAF: